sensor_id;sensor_type;location;lat;lon;timestamp;pressure;altitude;pressure_sealevel;temperature;humidity
16100;BME280;8154;50.830;12.082;2023-04-06T00:00:08;99798.25;;;21.91;34.53
16100;BME280;8154;50.830;12.082;2023-04-06T00:02:35;99801.75;;;21.91;34.41
16100;BME280;8154;50.830;12.082;2023-04-06T00:05:02;99800.13;;;21.90;34.48
16100;BME280;8154;50.830;12.082;2023-04-06T00:07:47;99795.94;;;21.88;34.46
16100;BME280;8154;50.830;12.082;2023-04-06T00:10:16;99791.81;;;21.85;34.47
16100;BME280;8154;50.830;12.082;2023-04-06T00:12:44;99797.97;;;21.86;34.54
16100;BME280;8154;50.830;12.082;2023-04-06T00:15:10;99796.31;;;21.85;34.44
16100;BME280;8154;50.830;12.082;2023-04-06T00:17:49;99790.63;;;21.88;34.54
16100;BME280;8154;50.830;12.082;2023-04-06T00:20:21;99789.47;;;21.90;34.51
16100;BME280;8154;50.830;12.082;2023-04-06T00:23:06;99789.13;;;21.93;34.39
16100;BME280;8154;50.830;12.082;2023-04-06T00:25:36;99794.44;;;21.93;34.51
16100;BME280;8154;50.830;12.082;2023-04-06T00:28:03;99790.75;;;21.94;34.45
16100;BME280;8154;50.830;12.082;2023-04-06T00:30:30;99793.59;;;21.93;34.38
16100;BME280;8154;50.830;12.082;2023-04-06T00:32:57;99790.09;;;21.92;34.25
16100;BME280;8154;50.830;12.082;2023-04-06T00:35:24;99783.97;;;21.92;34.42
16100;BME280;8154;50.830;12.082;2023-04-06T00:37:53;99776.16;;;21.90;34.40
16100;BME280;8154;50.830;12.082;2023-04-06T00:40:19;99779.72;;;21.83;34.71
16100;BME280;8154;50.830;12.082;2023-04-06T00:42:46;99782.81;;;21.86;34.55
16100;BME280;8154;50.830;12.082;2023-04-06T00:45:15;99783.13;;;21.91;34.43
16100;BME280;8154;50.830;12.082;2023-04-06T00:47:43;99778.47;;;21.93;34.39
16100;BME280;8154;50.830;12.082;2023-04-06T00:50:10;99779.28;;;21.94;34.37
16100;BME280;8154;50.830;12.082;2023-04-06T00:52:37;99788.94;;;21.95;34.38
16100;BME280;8154;50.830;12.082;2023-04-06T00:55:04;99780.94;;;21.95;34.41
16100;BME280;8154;50.830;12.082;2023-04-06T00:57:31;99782.59;;;21.96;34.34
16100;BME280;8154;50.830;12.082;2023-04-06T00:59:58;99771.47;;;21.92;34.33
16100;BME280;8154;50.830;12.082;2023-04-06T01:02:25;99775.97;;;21.92;34.34
16100;BME280;8154;50.830;12.082;2023-04-06T01:04:53;99778.81;;;21.90;34.40
16100;BME280;8154;50.830;12.082;2023-04-06T01:07:23;99775.63;;;21.95;34.38
16100;BME280;8154;50.830;12.082;2023-04-06T01:09:55;99775.72;;;21.79;34.58
16100;BME280;8154;50.830;12.082;2023-04-06T01:12:29;99774.84;;;21.86;34.48
16100;BME280;8154;50.830;12.082;2023-04-06T01:14:59;99775.16;;;21.91;34.40
16100;BME280;8154;50.830;12.082;2023-04-06T01:17:26;99780.28;;;21.93;34.21
16100;BME280;8154;50.830;12.082;2023-04-06T01:19:59;99773.31;;;21.92;34.35
16100;BME280;8154;50.830;12.082;2023-04-06T01:22:29;99772.53;;;21.83;34.46
16100;BME280;8154;50.830;12.082;2023-04-06T01:25:15;99770.91;;;21.82;34.43
16100;BME280;8154;50.830;12.082;2023-04-06T01:28:01;99768.72;;;21.86;34.39
16100;BME280;8154;50.830;12.082;2023-04-06T01:30:46;99765.22;;;21.85;34.55
16100;BME280;8154;50.830;12.082;2023-04-06T01:33:32;99761.19;;;21.89;34.40
16100;BME280;8154;50.830;12.082;2023-04-06T01:36:18;99760.81;;;21.92;34.30
16100;BME280;8154;50.830;12.082;2023-04-06T01:38:48;99764.16;;;21.94;34.22
16100;BME280;8154;50.830;12.082;2023-04-06T01:41:20;99761.31;;;21.96;34.24
16100;BME280;8154;50.830;12.082;2023-04-06T01:44:05;99765.75;;;21.81;34.53
16100;BME280;8154;50.830;12.082;2023-04-06T01:46:51;99768.91;;;21.84;34.46
16100;BME280;8154;50.830;12.082;2023-04-06T01:49:36;99768.72;;;21.86;34.36
16100;BME280;8154;50.830;12.082;2023-04-06T01:52:12;99759.72;;;21.87;34.43
16100;BME280;8154;50.830;12.082;2023-04-06T01:54:40;99755.22;;;21.87;34.42
16100;BME280;8154;50.830;12.082;2023-04-06T01:57:08;99765.34;;;21.92;34.33
16100;BME280;8154;50.830;12.082;2023-04-06T01:59:35;99757.59;;;21.82;34.66
16100;BME280;8154;50.830;12.082;2023-04-06T02:02:02;99756.56;;;21.83;34.55
16100;BME280;8154;50.830;12.082;2023-04-06T02:04:28;99756.22;;;21.86;34.39
16100;BME280;8154;50.830;12.082;2023-04-06T02:06:55;99754.41;;;21.87;34.29
16100;BME280;8154;50.830;12.082;2023-04-06T02:09:21;99759.19;;;21.91;34.26
16100;BME280;8154;50.830;12.082;2023-04-06T02:11:48;99752.66;;;21.94;34.15
16100;BME280;8154;50.830;12.082;2023-04-06T02:14:14;99752.03;;;21.92;34.22
16100;BME280;8154;50.830;12.082;2023-04-06T02:16:40;99748.53;;;21.91;34.25
16100;BME280;8154;50.830;12.082;2023-04-06T02:19:06;99746.06;;;21.90;34.17
16100;BME280;8154;50.830;12.082;2023-04-06T02:21:33;99750.19;;;21.92;34.29
16100;BME280;8154;50.830;12.082;2023-04-06T02:23:59;99741.94;;;21.87;34.36
16100;BME280;8154;50.830;12.082;2023-04-06T02:26:25;99745.56;;;21.86;34.38
16100;BME280;8154;50.830;12.082;2023-04-06T02:28:51;99749.72;;;21.89;34.36
16100;BME280;8154;50.830;12.082;2023-04-06T02:31:17;99743.22;;;21.91;34.33
16100;BME280;8154;50.830;12.082;2023-04-06T02:33:43;99748.53;;;21.91;34.28
16100;BME280;8154;50.830;12.082;2023-04-06T02:36:09;99742.38;;;21.91;34.28
16100;BME280;8154;50.830;12.082;2023-04-06T02:38:35;99745.03;;;21.91;34.32
16100;BME280;8154;50.830;12.082;2023-04-06T02:41:01;99743.22;;;21.91;34.13
16100;BME280;8154;50.830;12.082;2023-04-06T02:43:27;99745.69;;;21.93;34.18
16100;BME280;8154;50.830;12.082;2023-04-06T02:45:53;99740.56;;;21.91;34.33
16100;BME280;8154;50.830;12.082;2023-04-06T02:48:20;99738.56;;;21.93;34.28
16100;BME280;8154;50.830;12.082;2023-04-06T02:50:46;99744.50;;;21.95;34.19
16100;BME280;8154;50.830;12.082;2023-04-06T02:53:12;99736.84;;;21.78;34.49
16100;BME280;8154;50.830;12.082;2023-04-06T02:55:39;99750.16;;;21.70;34.60
16100;BME280;8154;50.830;12.082;2023-04-06T02:58:05;99755.09;;;21.81;34.46
16100;BME280;8154;50.830;12.082;2023-04-06T03:00:31;99750.28;;;21.84;34.37
16100;BME280;8154;50.830;12.082;2023-04-06T03:02:57;99743.75;;;21.87;34.29
16100;BME280;8154;50.830;12.082;2023-04-06T03:05:33;99748.72;;;21.90;34.25
16100;BME280;8154;50.830;12.082;2023-04-06T03:07:59;99752.22;;;21.90;34.30
16100;BME280;8154;50.830;12.082;2023-04-06T03:10:25;99746.22;;;21.88;34.21
16100;BME280;8154;50.830;12.082;2023-04-06T03:12:51;99746.53;;;21.93;34.17
16100;BME280;8154;50.830;12.082;2023-04-06T03:15:17;99752.41;;;21.89;34.29
16100;BME280;8154;50.830;12.082;2023-04-06T03:17:43;99750.53;;;21.89;34.33
16100;BME280;8154;50.830;12.082;2023-04-06T03:20:09;99752.22;;;21.90;34.17
16100;BME280;8154;50.830;12.082;2023-04-06T03:22:35;99750.19;;;21.92;34.14
16100;BME280;8154;50.830;12.082;2023-04-06T03:25:01;99748.53;;;21.91;34.26
16100;BME280;8154;50.830;12.082;2023-04-06T03:27:27;99751.19;;;21.91;34.29
16100;BME280;8154;50.830;12.082;2023-04-06T03:29:54;99751.56;;;21.88;34.20
16100;BME280;8154;50.830;12.082;2023-04-06T03:32:20;99751.19;;;21.91;34.35
16100;BME280;8154;50.830;12.082;2023-04-06T03:34:46;99747.06;;;21.89;34.17
16100;BME280;8154;50.830;12.082;2023-04-06T03:37:12;99755.06;;;21.89;34.28
16100;BME280;8154;50.830;12.082;2023-04-06T03:39:38;99754.69;;;21.92;34.17
16100;BME280;8154;50.830;12.082;2023-04-06T03:42:04;99758.34;;;21.91;34.28
16100;BME280;8154;50.830;12.082;2023-04-06T03:44:30;99754.09;;;21.82;34.45
16100;BME280;8154;50.830;12.082;2023-04-06T03:46:57;99764.56;;;21.83;34.40
16100;BME280;8154;50.830;12.082;2023-04-06T03:49:23;99769.34;;;21.88;34.20
16100;BME280;8154;50.830;12.082;2023-04-06T03:51:49;99764.84;;;21.88;34.31
16100;BME280;8154;50.830;12.082;2023-04-06T03:54:15;99771.38;;;21.86;34.27
16100;BME280;8154;50.830;12.082;2023-04-06T03:56:41;99768.53;;;21.87;34.25
16100;BME280;8154;50.830;12.082;2023-04-06T03:59:07;99766.84;;;21.86;34.16
16100;BME280;8154;50.830;12.082;2023-04-06T04:01:33;99776.53;;;21.87;34.27
16100;BME280;8154;50.830;12.082;2023-04-06T04:03:59;99781.84;;;21.87;34.29
16100;BME280;8154;50.830;12.082;2023-04-06T04:06:26;99775.16;;;21.91;34.23
16100;BME280;8154;50.830;12.082;2023-04-06T04:08:52;99777.81;;;21.91;34.27
16100;BME280;8154;50.830;12.082;2023-04-06T04:11:18;99771.47;;;21.92;34.14
16100;BME280;8154;50.830;12.082;2023-04-06T04:13:44;99771.47;;;21.92;34.21
16100;BME280;8154;50.830;12.082;2023-04-06T04:16:10;99778.66;;;21.92;34.25
16100;BME280;8154;50.830;12.082;2023-04-06T04:18:36;99774.84;;;21.86;34.26
16100;BME280;8154;50.830;12.082;2023-04-06T04:21:02;99772.22;;;21.78;34.41
16100;BME280;8154;50.830;12.082;2023-04-06T04:23:29;99776.56;;;21.79;34.41
16100;BME280;8154;50.830;12.082;2023-04-06T04:25:55;99776.22;;;21.82;34.40
16100;BME280;8154;50.830;12.082;2023-04-06T04:28:21;99771.38;;;21.86;34.31
16100;BME280;8154;50.830;12.082;2023-04-06T04:30:47;99777.50;;;21.86;34.23
16100;BME280;8154;50.830;12.082;2023-04-06T04:33:13;99784.91;;;21.76;34.50
16100;BME280;8154;50.830;12.082;2023-04-06T04:35:39;99779.59;;;21.68;34.64
16100;BME280;8154;50.830;12.082;2023-04-06T04:38:05;99778.38;;;21.79;34.47
16100;BME280;8154;50.830;12.082;2023-04-06T04:40:32;99779.84;;;21.81;34.48
16100;BME280;8154;50.830;12.082;2023-04-06T04:42:58;99784.84;;;21.84;34.48
16100;BME280;8154;50.830;12.082;2023-04-06T04:45:24;99786.50;;;21.85;34.37
16100;BME280;8154;50.830;12.082;2023-04-06T04:47:50;99782.81;;;21.86;34.29
16100;BME280;8154;50.830;12.082;2023-04-06T04:50:16;99790.81;;;21.86;34.35
16100;BME280;8154;50.830;12.082;2023-04-06T04:52:42;99793.94;;;21.90;34.31
16100;BME280;8154;50.830;12.082;2023-04-06T04:55:09;99789.47;;;21.90;34.25
16100;BME280;8154;50.830;12.082;2023-04-06T04:57:35;99791.94;;;21.92;34.26
16100;BME280;8154;50.830;12.082;2023-04-06T05:00:01;99786.63;;;21.92;34.23
16100;BME280;8154;50.830;12.082;2023-04-06T05:02:27;99792.75;;;21.92;34.31
16100;BME280;8154;50.830;12.082;2023-04-06T05:04:54;99791.13;;;21.91;34.28
16100;BME280;8154;50.830;12.082;2023-04-06T05:07:20;99788.28;;;21.93;34.38
16100;BME280;8154;50.830;12.082;2023-04-06T05:09:46;99788.28;;;21.93;34.18
16100;BME280;8154;50.830;12.082;2023-04-06T05:12:13;99789.34;;;21.84;34.33
16100;BME280;8154;50.830;12.082;2023-04-06T05:14:39;99797.50;;;21.82;34.49
16100;BME280;8154;50.830;12.082;2023-04-06T05:17:06;99792.19;;;21.82;34.43
16100;BME280;8154;50.830;12.082;2023-04-06T05:19:32;99797.97;;;21.86;34.39
16100;BME280;8154;50.830;12.082;2023-04-06T05:21:58;99801.28;;;21.88;34.34
16100;BME280;8154;50.830;12.082;2023-04-06T05:24:24;99802.94;;;21.89;34.38
16100;BME280;8154;50.830;12.082;2023-04-06T05:26:51;99801.59;;;21.93;34.34
16100;BME280;8154;50.830;12.082;2023-04-06T05:29:18;99800.91;;;21.91;34.30
16100;BME280;8154;50.830;12.082;2023-04-06T05:31:44;99804.25;;;21.93;34.33
16100;BME280;8154;50.830;12.082;2023-04-06T05:34:11;99800.56;;;21.94;34.26
16100;BME280;8154;50.830;12.082;2023-04-06T05:36:38;99804.59;;;21.90;34.36
16100;BME280;8154;50.830;12.082;2023-04-06T05:39:06;99800.47;;;21.87;34.36
16100;BME280;8154;50.830;12.082;2023-04-06T05:41:33;99796.78;;;21.88;34.46
16100;BME280;8154;50.830;12.082;2023-04-06T05:43:59;99797.16;;;21.85;34.42
16100;BME280;8154;50.830;12.082;2023-04-06T05:46:25;99800.19;;;21.74;34.78
16100;BME280;8154;50.830;12.082;2023-04-06T05:48:51;99805.94;;;21.55;35.21
16100;BME280;8154;50.830;12.082;2023-04-06T05:51:17;99804.16;;;21.48;35.35
16100;BME280;8154;50.830;12.082;2023-04-06T05:53:43;99807.28;;;21.51;35.37
16100;BME280;8154;50.830;12.082;2023-04-06T05:56:09;99801.63;;;21.54;35.35
16100;BME280;8154;50.830;12.082;2023-04-06T05:58:35;99809.63;;;21.46;35.59
16100;BME280;8154;50.830;12.082;2023-04-06T06:01:01;99804.00;;;21.41;35.80
16100;BME280;8154;50.830;12.082;2023-04-06T06:03:28;99802.69;;;21.45;35.63
16100;BME280;8154;50.830;12.082;2023-04-06T06:06:04;99806.97;;;21.46;35.71
16100;BME280;8154;50.830;12.082;2023-04-06T06:08:30;99807.81;;;21.47;35.70
16100;BME280;8154;50.830;12.082;2023-04-06T06:10:57;99798.03;;;21.47;35.72
16100;BME280;8154;50.830;12.082;2023-04-06T06:13:23;99808.16;;;21.44;35.82
16100;BME280;8154;50.830;12.082;2023-04-06T06:15:50;99809.81;;;21.45;35.99
16100;BME280;8154;50.830;12.082;2023-04-06T06:18:16;99813.13;;;21.47;35.91
16100;BME280;8154;50.830;12.082;2023-04-06T06:20:42;99810.31;;;21.48;35.90
16100;BME280;8154;50.830;12.082;2023-04-06T06:23:08;99810.13;;;21.50;35.91
16100;BME280;8154;50.830;12.082;2023-04-06T06:25:34;99812.78;;;21.50;35.96
16100;BME280;8154;50.830;12.082;2023-04-06T06:28:01;99812.78;;;21.50;36.13
16100;BME280;8154;50.830;12.082;2023-04-06T06:30:27;99805.81;;;21.49;36.15
16100;BME280;8154;50.830;12.082;2023-04-06T06:32:53;99803.16;;;21.49;36.12
16100;BME280;8154;50.830;12.082;2023-04-06T06:35:19;99808.94;;;21.52;36.18
16100;BME280;8154;50.830;12.082;2023-04-06T06:37:50;99812.44;;;21.53;36.09
16100;BME280;8154;50.830;12.082;2023-04-06T06:40:16;99808.59;;;21.55;36.13
16100;BME280;8154;50.830;12.082;2023-04-06T06:42:43;99805.28;;;21.53;36.20
16100;BME280;8154;50.830;12.082;2023-04-06T06:45:09;99809.59;;;21.54;36.30
16100;BME280;8154;50.830;12.082;2023-04-06T06:47:36;99812.94;;;21.56;36.32
16100;BME280;8154;50.830;12.082;2023-04-06T06:50:01;99809.91;;;21.59;36.29
16100;BME280;8154;50.830;12.082;2023-04-06T06:52:28;99809.91;;;21.59;36.39
16100;BME280;8154;50.830;12.082;2023-04-06T06:54:55;99815.06;;;21.61;36.42
16100;BME280;8154;50.830;12.082;2023-04-06T06:57:22;99811.22;;;21.63;36.43
16100;BME280;8154;50.830;12.082;2023-04-06T06:59:48;99809.69;;;21.69;36.35
16100;BME280;8154;50.830;12.082;2023-04-06T07:02:15;99807.03;;;21.69;36.36
16100;BME280;8154;50.830;12.082;2023-04-06T07:04:42;99806.19;;;21.68;36.30
16100;BME280;8154;50.830;12.082;2023-04-06T07:07:07;99811.16;;;21.71;36.39
16100;BME280;8154;50.830;12.082;2023-04-06T07:09:35;99809.03;;;21.75;36.27
16100;BME280;8154;50.830;12.082;2023-04-06T09:15:02;99783.84;;;22.45;35.98
16100;BME280;8154;50.830;12.082;2023-04-06T09:17:31;99783.66;;;22.46;36.09
16100;BME280;8154;50.830;12.082;2023-04-06T09:20:03;99777.34;;;22.47;36.07
16100;BME280;8154;50.830;12.082;2023-04-06T09:22:36;99775.31;;;22.49;35.87
16100;BME280;8154;50.830;12.082;2023-04-06T09:25:03;99774.69;;;22.47;35.86
16100;BME280;8154;50.830;12.082;2023-04-06T09:27:34;99773.66;;;22.48;36.00
16100;BME280;8154;50.830;12.082;2023-04-06T09:30:11;99772.81;;;22.48;36.00
16100;BME280;8154;50.830;12.082;2023-04-06T09:32:46;99773.00;;;22.46;36.13
16100;BME280;8154;50.830;12.082;2023-04-06T09:35:12;99771.19;;;22.47;36.03
16100;BME280;8154;50.830;12.082;2023-04-06T09:37:39;99772.81;;;22.48;36.06
16100;BME280;8154;50.830;12.082;2023-04-06T09:40:06;99771.19;;;22.47;35.99
16100;BME280;8154;50.830;12.082;2023-04-06T09:42:34;99763.84;;;22.49;35.77
16100;BME280;8154;50.830;12.082;2023-04-06T09:45:02;99764.66;;;22.49;35.94
16100;BME280;8154;50.830;12.082;2023-04-06T09:47:29;99765.00;;;22.46;36.12
16100;BME280;8154;50.830;12.082;2023-04-06T09:49:58;99767.66;;;22.46;36.17
16100;BME280;8154;50.830;12.082;2023-04-06T09:52:33;99760.53;;;22.47;36.02
16100;BME280;8154;50.830;12.082;2023-04-06T09:55:04;99764.81;;;22.48;36.01
16100;BME280;8154;50.830;12.082;2023-04-06T10:00:22;99756.22;;;22.46;36.16
16100;BME280;8154;50.830;12.082;2023-04-06T10:06:05;99755.19;;;22.47;36.20
16100;BME280;8154;50.830;12.082;2023-04-06T10:08:33;99738.19;;;22.48;36.16
16100;BME280;8154;50.830;12.082;2023-04-06T10:11:01;99752.53;;;22.47;36.16
16100;BME280;8154;50.830;12.082;2023-04-06T10:13:28;99747.38;;;22.45;36.12
16100;BME280;8154;50.830;12.082;2023-04-06T10:15:54;99756.22;;;22.46;36.21
16100;BME280;8154;50.830;12.082;2023-04-06T10:18:21;99750.88;;;22.46;36.05
16100;BME280;8154;50.830;12.082;2023-04-06T10:20:57;99743.69;;;22.46;36.18
16100;BME280;8154;50.830;12.082;2023-04-06T10:23:32;99744.72;;;22.45;36.22
16100;BME280;8154;50.830;12.082;2023-04-06T10:26:00;99746.53;;;22.45;36.13
16100;BME280;8154;50.830;12.082;2023-04-06T10:28:34;99745.75;;;22.44;36.06
16100;BME280;8154;50.830;12.082;2023-04-06T10:31:04;99743.09;;;22.44;35.93
16100;BME280;8154;50.830;12.082;2023-04-06T10:33:31;99746.91;;;22.42;36.08
16100;BME280;8154;50.830;12.082;2023-04-06T10:35:58;99739.75;;;22.42;36.05
16100;BME280;8154;50.830;12.082;2023-04-06T10:38:36;99743.44;;;22.41;35.88
16100;BME280;8154;50.830;12.082;2023-04-06T10:41:07;99740.78;;;22.41;35.98
16100;BME280;8154;50.830;12.082;2023-04-06T10:43:35;99736.44;;;22.40;35.96
16100;BME280;8154;50.830;12.082;2023-04-06T10:46:04;99728.44;;;22.40;36.12
16100;BME280;8154;50.830;12.082;2023-04-06T10:51:12;99726.81;;;22.39;35.96
16100;BME280;8154;50.830;12.082;2023-04-06T10:53:38;99732.97;;;22.40;35.91
16100;BME280;8154;50.830;12.082;2023-04-06T10:56:10;99729.47;;;22.39;35.96
16100;BME280;8154;50.830;12.082;2023-04-06T10:58:51;99730.13;;;22.41;35.81
16100;BME280;8154;50.830;12.082;2023-04-06T11:01:26;99723.13;;;22.40;35.93
16100;BME280;8154;50.830;12.082;2023-04-06T11:04:00;99721.66;;;22.38;35.77
16100;BME280;8154;50.830;12.082;2023-04-06T11:06:29;99715.50;;;22.37;35.74
16100;BME280;8154;50.830;12.082;2023-04-06T11:09:02;99716.53;;;22.36;35.85
16100;BME280;8154;50.830;12.082;2023-04-06T11:11:29;99713.69;;;22.38;35.94
16100;BME280;8154;50.830;12.082;2023-04-06T12:15:24;99653.41;;;22.37;35.50
16100;BME280;8154;50.830;12.082;2023-04-06T12:17:50;99657.28;;;22.34;35.49
16100;BME280;8154;50.830;12.082;2023-04-06T12:20:17;99656.63;;;22.32;35.54
16100;BME280;8154;50.830;12.082;2023-04-06T12:22:43;99651.13;;;22.34;35.43
16100;BME280;8154;50.830;12.082;2023-04-06T12:25:10;99643.31;;;22.32;35.35
16100;BME280;8154;50.830;12.082;2023-04-06T12:27:37;99641.50;;;22.33;35.61
16100;BME280;8154;50.830;12.082;2023-04-06T12:30:03;99637.63;;;22.35;35.30
16100;BME280;8154;50.830;12.082;2023-04-06T12:32:43;99642.94;;;22.35;35.41
16100;BME280;8154;50.830;12.082;2023-04-06T12:35:11;99637.00;;;22.33;35.49
16100;BME280;8154;50.830;12.082;2023-04-06T15:13:55;99543.63;;;22.35;34.85
16100;BME280;8154;50.830;12.082;2023-04-06T15:16:22;99544.00;;;22.32;34.94
16100;BME280;8154;50.830;12.082;2023-04-06T15:18:49;99539.66;;;22.31;34.83
16100;BME280;8154;50.830;12.082;2023-04-06T15:21:15;99540.50;;;22.31;34.90
16100;BME280;8154;50.830;12.082;2023-04-06T15:23:41;99534.16;;;22.32;34.77
16100;BME280;8154;50.830;12.082;2023-04-06T15:26:07;99535.06;;;22.39;34.84
16100;BME280;8154;50.830;12.082;2023-04-06T15:28:33;99539.47;;;22.32;34.72
16100;BME280;8154;50.830;12.082;2023-04-06T15:31:01;99528.81;;;22.32;34.88
16100;BME280;8154;50.830;12.082;2023-04-06T15:33:31;99528.03;;;22.32;34.79
16100;BME280;8154;50.830;12.082;2023-04-06T15:35:57;99531.47;;;22.32;34.80
16100;BME280;8154;50.830;12.082;2023-04-06T15:38:23;99538.47;;;22.33;34.79
16100;BME280;8154;50.830;12.082;2023-04-06T15:40:49;99532.41;;;22.39;34.72
16100;BME280;8154;50.830;12.082;2023-04-06T15:43:15;99529.28;;;22.36;34.73
16100;BME280;8154;50.830;12.082;2023-04-06T15:45:42;99535.63;;;22.35;34.74
16100;BME280;8154;50.830;12.082;2023-04-06T15:48:08;99529.28;;;22.36;34.64
16100;BME280;8154;50.830;12.082;2023-04-06T15:50:34;99529.28;;;22.36;34.66
16100;BME280;8154;50.830;12.082;2023-04-06T15:53:01;99533.53;;;22.30;34.68
16100;BME280;8154;50.830;12.082;2023-04-06T15:55:27;99526.81;;;22.34;34.60
16100;BME280;8154;50.830;12.082;2023-04-06T15:57:53;99528.63;;;22.34;34.55
16100;BME280;8154;50.830;12.082;2023-04-06T16:00:19;99537.09;;;22.37;34.67
16100;BME280;8154;50.830;12.082;2023-04-06T16:02:45;99527.47;;;22.36;34.71
16100;BME280;8154;50.830;12.082;2023-04-06T16:05:15;99526.06;;;22.40;34.60
16100;BME280;8154;50.830;12.082;2023-04-06T16:07:41;99528.03;;;22.32;34.71
16100;BME280;8154;50.830;12.082;2023-04-06T16:10:08;99534.16;;;22.32;34.69
16100;BME280;8154;50.830;12.082;2023-04-06T16:12:34;99525.16;;;22.33;34.66
16100;BME280;8154;50.830;12.082;2023-04-06T16:15:00;99528.25;;;22.37;34.58
16100;BME280;8154;50.830;12.082;2023-04-06T16:17:26;99529.94;;;22.38;34.65
16100;BME280;8154;50.830;12.082;2023-04-06T16:19:53;99537.91;;;22.38;34.56
16100;BME280;8154;50.830;12.082;2023-04-06T16:22:19;99532.41;;;22.39;34.57
16100;BME280;8154;50.830;12.082;2023-04-06T16:24:45;99533.25;;;22.40;34.58
16100;BME280;8154;50.830;12.082;2023-04-06T16:27:11;99526.06;;;22.40;34.43
16100;BME280;8154;50.830;12.082;2023-04-06T16:29:37;99535.06;;;22.39;34.51
16100;BME280;8154;50.830;12.082;2023-04-06T16:32:03;99527.84;;;22.33;34.52
16100;BME280;8154;50.830;12.082;2023-04-06T16:34:33;99536.63;;;22.34;34.56
16100;BME280;8154;50.830;12.082;2023-04-06T16:36:59;99531.09;;;22.35;34.50
16100;BME280;8154;50.830;12.082;2023-04-06T16:39:26;99527.84;;;22.33;34.55
16100;BME280;8154;50.830;12.082;2023-04-06T16:41:52;99531.84;;;22.29;34.68
16100;BME280;8154;50.830;12.082;2023-04-06T16:44:18;99527.94;;;22.25;34.80
16100;BME280;8154;50.830;12.082;2023-04-06T16:47:04;99539.78;;;22.23;34.82
16100;BME280;8154;50.830;12.082;2023-04-06T16:49:30;99525.00;;;22.20;34.72
16100;BME280;8154;50.830;12.082;2023-04-06T16:51:56;99529.94;;;22.23;34.69
16100;BME280;8154;50.830;12.082;2023-04-06T16:54:35;99529.56;;;22.26;34.59
16100;BME280;8154;50.830;12.082;2023-04-06T16:57:01;99528.94;;;22.24;34.57
16100;BME280;8154;50.830;12.082;2023-04-06T16:59:30;99527.00;;;22.33;34.48
16100;BME280;8154;50.830;12.082;2023-04-06T17:01:56;99522.50;;;22.33;34.43
16100;BME280;8154;50.830;12.082;2023-04-06T17:04:22;99522.69;;;22.32;34.46
16100;BME280;8154;50.830;12.082;2023-04-06T17:06:48;99523.69;;;22.31;34.50
16100;BME280;8154;50.830;12.082;2023-04-06T17:09:15;99532.59;;;22.38;34.44
16100;BME280;8154;50.830;12.082;2023-04-06T17:11:41;99531.56;;;22.39;34.34
16100;BME280;8154;50.830;12.082;2023-04-06T18:15:34;99582.00;;;22.26;34.55
16100;BME280;8154;50.830;12.082;2023-04-06T18:18:00;99580.91;;;22.35;34.34
16100;BME280;8154;50.830;12.082;2023-04-06T18:20:26;99582.34;;;22.37;34.26
16100;BME280;8154;50.830;12.082;2023-04-06T18:22:52;99581.78;;;22.42;34.28
16100;BME280;8154;50.830;12.082;2023-04-06T18:25:19;99585.94;;;22.44;34.04
16100;BME280;8154;50.830;12.082;2023-04-06T18:27:45;99590.72;;;22.49;34.05
16100;BME280;8154;50.830;12.082;2023-04-06T18:30:12;99591.38;;;22.51;33.97
16100;BME280;8154;50.830;12.082;2023-04-06T18:32:38;99589.25;;;22.32;34.20
16100;BME280;8154;50.830;12.082;2023-04-06T18:35:05;99591.25;;;22.15;34.57
16100;BME280;8154;50.830;12.082;2023-04-06T18:37:33;99594.69;;;22.24;34.31
16100;BME280;8154;50.830;12.082;2023-04-06T18:40:01;99589.88;;;22.34;34.31
16100;BME280;8154;50.830;12.082;2023-04-06T18:42:27;99589.97;;;22.40;34.13
16100;BME280;8154;50.830;12.082;2023-04-06T18:44:54;99595.56;;;22.45;34.05
16100;BME280;8154;50.830;12.082;2023-04-06T18:47:19;99596.59;;;22.30;34.34
16100;BME280;8154;50.830;12.082;2023-04-06T18:49:46;99598.63;;;22.13;34.62
16100;BME280;8154;50.830;12.082;2023-04-06T18:52:12;99603.59;;;22.16;34.45
16100;BME280;8154;50.830;12.082;2023-04-06T18:54:38;99598.88;;;22.33;34.33
16100;BME280;8154;50.830;12.082;2023-04-06T18:57:05;99603.09;;;22.42;34.19
16100;BME280;8154;50.830;12.082;2023-04-06T18:59:31;99601.75;;;22.46;34.00
16100;BME280;8154;50.830;12.082;2023-04-06T19:01:57;99605.94;;;22.40;34.11
16100;BME280;8154;50.830;12.082;2023-04-06T19:04:24;99611.47;;;22.24;34.34
16100;BME280;8154;50.830;12.082;2023-04-06T19:06:50;99607.69;;;22.19;34.32
16100;BME280;8154;50.830;12.082;2023-04-06T19:09:17;99612.28;;;22.39;33.95
16100;BME280;8154;50.830;12.082;2023-04-06T19:11:43;99606.59;;;22.42;34.13
16100;BME280;8154;50.830;12.082;2023-04-06T19:14:08;99615.84;;;22.46;33.89
16100;BME280;8154;50.830;12.082;2023-04-06T22:14:52;99592.53;;;22.48;33.70
16100;BME280;8154;50.830;12.082;2023-04-06T22:17:18;99588.97;;;22.41;33.72
16100;BME280;8154;50.830;12.082;2023-04-06T22:19:44;99594.13;;;22.57;33.48
16100;BME280;8154;50.830;12.082;2023-04-06T22:22:10;99589.25;;;22.61;33.42
16100;BME280;8154;50.830;12.082;2023-04-06T22:24:37;99590.69;;;22.63;33.47
16100;BME280;8154;50.830;12.082;2023-04-06T22:27:02;99591.34;;;22.65;33.43
16100;BME280;8154;50.830;12.082;2023-04-06T22:29:29;99583.34;;;22.65;33.46
16100;BME280;8154;50.830;12.082;2023-04-06T22:31:55;99595.28;;;22.69;33.30
16100;BME280;8154;50.830;12.082;2023-04-06T22:34:21;99583.91;;;22.46;33.73
16100;BME280;8154;50.830;12.082;2023-04-06T22:36:47;99589.97;;;22.40;33.79
16100;BME280;8154;50.830;12.082;2023-04-06T22:39:14;99593.47;;;22.55;33.43
16100;BME280;8154;50.830;12.082;2023-04-06T22:41:40;99587.03;;;22.64;33.49
16100;BME280;8154;50.830;12.082;2023-04-06T22:44:06;99581.72;;;22.64;33.36
16100;BME280;8154;50.830;12.082;2023-04-06T22:46:33;99584.63;;;22.69;33.48
16100;BME280;8154;50.830;12.082;2023-04-06T22:48:59;99584.84;;;22.53;33.51
16100;BME280;8154;50.830;12.082;2023-04-06T22:51:25;99586.75;;;22.45;33.81